Portada
METAR-TAF:

METAR-TAF

Aeroports :

Cabo San Lucas, Mèxic

latitud: 22-56-51N, longitud: 109-56-13W, altitud: 210 m

Observació

L'informe es va fer fa 6 hores i 19 minuts, a les 01:40 UTC
Vent 8 kt del Oest
Temperatura 27°C
Humitat 79%
Pressió 1012 hPa
Visibilitat: 16.1 km
Escasses núvols a una alçada de 25000 ft

METAR: MMSL 190140Z 26008KT 10SM FEW250 27/23 A2989 RMK 8/008

Hora: 00:59 (07:59 UTC)

Pronòstic

L'informe es va fer fa 3 hores i 51 minuts, a les 04:08 UTC
Pronòstic vàlid del 19 a les 06 UTC al 20 a les 06 UTC
Vent 8 kt del Oest/Nord-Oest
Visibilitat: 10 km
Núvols disperses a una alçada de 25000 ft
A partir de les 19 a les 1800 UTC
Vent 10 kt del Sud-Oest
Visibilitat: 10 km
Núvols disperses a una alçada de 3000 ft
A partir de les 20 a les 0300 UTC
Vent 5 kt del Oest/Nord-Oest
Visibilitat: 10 km
Núvols disperses a una alçada de 25000 ft

TAF: MMSL 190408Z 1906/2006 30008KT P6SM SCT250 FM191800 23010KT P6SM SCT030 FM200300 30005KT P6SM SCT250

Observacions i pronòstics meteorològics de més de 4000 aeroports (METAR i TAF).

Les estacions disponibles són els punts grocs i vermells al mapa.

Posi el ratolí al punt desitjat per veure el nom de l'estació.

Feu clic per veure les observacions i els pronòstics meteorològics.

Per canviar el mapa: feu clic els botons verds amb una creu de color negre per apropar; al botó verd amb un guió per allunyar la imatge; o en les fletxes verdes per a mapes adjacents.


METAR-TAF: